createdAt,value
2018-11-26T00:01:50.240Z,29.50
2018-11-26T00:04:16.275Z,25.97
2018-11-26T00:06:42.298Z,27.13
2018-11-26T00:09:08.340Z,25.90
2018-11-26T00:11:34.359Z,30.73
2018-11-26T00:14:01.415Z,27.30
2018-11-26T00:16:27.433Z,27.90
2018-11-26T00:18:53.471Z,25.80
2018-11-26T00:21:19.500Z,27.97
2018-11-26T00:23:45.541Z,31.67
2018-11-26T00:26:12.301Z,23.57
2018-11-26T00:28:38.331Z,25.63
2018-11-26T00:31:04.351Z,25.53
2018-11-26T00:33:30.368Z,25.80
2018-11-26T00:35:56.376Z,23.13
2018-11-26T00:38:22.415Z,27.93
2018-11-26T00:40:48.448Z,26.53
2018-11-26T00:43:14.436Z,25.20
2018-11-26T00:45:41.481Z,25.63
2018-11-26T00:48:07.501Z,23.73
2018-11-26T00:50:34.278Z,28.33
2018-11-26T00:53:00.318Z,26.03
2018-11-26T00:55:26.606Z,24.60
2018-11-26T00:57:53.372Z,27.23
2018-11-26T01:00:19.412Z,28.07
2018-11-26T01:02:45.456Z,26.90
2018-11-26T01:05:11.489Z,26.70
2018-11-26T01:07:38.543Z,26.87
2018-11-26T01:10:04.583Z,26.93
2018-11-26T01:12:30.609Z,26.00
2018-11-26T01:14:56.637Z,28.73
2018-11-26T01:17:22.668Z,27.20
2018-11-26T01:19:48.719Z,24.70
2018-11-26T01:22:14.745Z,25.50
2018-11-26T01:24:40.797Z,26.40
2018-11-26T01:27:06.836Z,25.07
2018-11-26T01:29:32.891Z,24.47
2018-11-26T01:31:58.929Z,24.80
2018-11-26T01:34:24.961Z,28.47
2018-11-26T01:36:50.974Z,25.17
2018-11-26T01:39:17.020Z,25.13
2018-11-26T01:41:43.041Z,26.00
2018-11-26T01:44:09.071Z,27.30
2018-11-26T01:46:35.097Z,24.33
2018-11-26T01:49:01.119Z,23.60
2018-11-26T01:51:27.134Z,25.80
2018-11-26T01:53:53.190Z,26.63
2018-11-26T01:56:19.195Z,28.67
2018-11-26T01:58:45.230Z,24.30
2018-11-26T02:01:11.272Z,27.30
2018-11-26T02:03:37.274Z,22.83
2018-11-26T02:06:03.339Z,23.80
2018-11-26T02:08:39.358Z,25.47
2018-11-26T02:11:05.354Z,26.97
2018-11-26T02:13:31.393Z,28.20
2018-11-26T02:15:57.412Z,24.50
2018-11-26T02:18:23.481Z,26.33
2018-11-26T02:20:51.550Z,26.60
2018-11-26T02:23:17.574Z,26.03
2018-11-26T02:25:43.622Z,24.53
2018-11-26T02:28:10.373Z,28.47
2018-11-26T02:30:36.415Z,25.60
2018-11-26T02:33:02.458Z,24.83
2018-11-26T02:35:28.475Z,32.10
2018-11-26T02:37:54.735Z,27.00
2018-11-26T02:40:20.768Z,26.50
2018-11-26T02:42:46.764Z,24.93
2018-11-26T02:45:12.769Z,21.43
2018-11-26T02:47:38.788Z,25.67
2018-11-26T02:50:04.898Z,25.10
2018-11-26T02:52:30.930Z,26.20
2018-11-26T02:54:56.944Z,25.23
2018-11-26T02:57:23.680Z,26.13
2018-11-26T02:59:49.690Z,27.47
2018-11-26T03:02:16.473Z,27.00
2018-11-26T03:04:42.486Z,26.47
2018-11-26T03:07:09.242Z,26.50
2018-11-26T03:09:35.254Z,26.83
2018-11-26T03:12:02.392Z,26.90
2018-11-26T03:14:28.413Z,24.80
2018-11-26T03:16:54.437Z,23.47
2018-11-26T03:19:20.446Z,23.90
2018-11-26T03:21:46.456Z,27.60
2018-11-26T03:24:12.502Z,24.60
2018-11-26T03:26:39.289Z,23.63
2018-11-26T03:29:05.350Z,25.57
2018-11-26T03:31:31.388Z,28.27
2018-11-26T03:33:57.489Z,28.87
2018-11-26T03:36:23.529Z,26.37
2018-11-26T03:38:49.576Z,24.80
2018-11-26T03:41:15.594Z,27.20
2018-11-26T03:43:41.577Z,25.27
2018-11-26T03:46:07.567Z,29.37
2018-11-26T03:48:33.553Z,26.90
2018-11-26T03:50:59.553Z,28.20
2018-11-26T03:53:25.545Z,27.47
2018-11-26T03:55:51.563Z,24.73
2018-11-26T03:58:17.593Z,25.60
2018-11-26T04:00:43.622Z,27.80
2018-11-26T04:03:09.626Z,32.53
2018-11-26T04:05:35.621Z,26.83
2018-11-26T04:08:02.378Z,30.87
2018-11-26T04:10:29.122Z,28.37
2018-11-26T04:12:55.110Z,27.20
2018-11-26T04:15:21.111Z,26.10
2018-11-26T04:17:47.126Z,25.30
2018-11-26T04:20:13.146Z,25.60
2018-11-26T04:22:39.174Z,28.57
2018-11-26T04:25:05.173Z,25.80
2018-11-26T04:27:31.160Z,24.57
2018-11-26T04:29:57.142Z,24.17
2018-11-26T04:32:23.134Z,26.60
2018-11-26T04:34:49.188Z,28.40
2018-11-26T04:37:15.177Z,29.33
2018-11-26T04:39:41.897Z,23.13
2018-11-26T04:42:08.013Z,23.53
2018-11-26T04:44:33.998Z,27.93
2018-11-26T04:46:59.974Z,24.40
2018-11-26T04:49:25.966Z,25.97
2018-11-26T04:51:51.939Z,26.30
2018-11-26T04:54:17.923Z,25.83
2018-11-26T04:56:43.920Z,26.23
2018-11-26T04:59:09.913Z,25.70
2018-11-26T05:01:36.719Z,35.10
2018-11-26T05:04:02.716Z,28.73
2018-11-26T05:06:28.705Z,32.90
2018-11-26T05:08:54.721Z,33.07
2018-11-26T05:11:20.746Z,29.57
2018-11-26T05:13:46.717Z,30.17
2018-11-26T05:16:12.689Z,30.63
2018-11-26T05:18:38.684Z,29.70
2018-11-26T05:21:04.661Z,30.90
2018-11-26T05:23:30.673Z,31.43
2018-11-26T05:25:56.678Z,33.10
2018-11-26T05:28:22.669Z,28.57
2018-11-26T05:30:48.641Z,36.60
2018-11-26T05:33:14.637Z,34.87
2018-11-26T05:35:41.362Z,36.10
2018-11-26T05:38:07.342Z,35.70
2018-11-26T05:40:33.336Z,34.70
2018-11-26T05:42:59.385Z,33.23
2018-11-26T05:45:25.376Z,43.43
2018-11-26T05:47:52.102Z,40.70
2018-11-26T05:50:18.107Z,42.10
2018-11-26T05:52:44.100Z,41.27
2018-11-26T05:55:10.073Z,38.83
2018-11-26T05:57:36.190Z,37.50
2018-11-26T06:00:02.327Z,39.80
2018-11-26T06:02:28.311Z,42.03
2018-11-26T06:04:54.310Z,55.17
2018-11-26T06:07:20.301Z,41.13
2018-11-26T06:09:47.035Z,38.70
2018-11-26T06:12:13.795Z,36.33
2018-11-26T06:14:46.737Z,38.60
2018-11-26T06:17:12.734Z,36.57
2018-11-26T06:19:38.705Z,38.43
2018-11-26T06:22:04.677Z,35.50
2018-11-26T06:24:30.689Z,34.43
2018-11-26T06:26:56.674Z,37.00
2018-11-26T06:29:22.665Z,38.90
2018-11-26T06:32:03.631Z,43.30
2018-11-26T06:34:29.656Z,37.40
2018-11-26T06:36:55.673Z,34.77
2018-11-26T06:39:21.653Z,41.10
2018-11-26T06:41:48.409Z,38.80
2018-11-26T06:44:14.379Z,43.80
2018-11-26T06:46:40.357Z,50.80
2018-11-26T06:49:06.342Z,40.60
2018-11-26T06:51:32.317Z,41.43
2018-11-26T06:53:58.342Z,36.23
2018-11-26T06:56:24.314Z,36.27
2018-11-26T06:58:50.289Z,40.10
2018-11-26T07:01:16.301Z,35.57
2018-11-26T07:03:42.293Z,36.20
2018-11-26T07:06:09.032Z,32.77
2018-11-26T07:08:35.793Z,38.53
2018-11-26T07:11:01.793Z,49.90
2018-11-26T07:13:27.778Z,37.50
2018-11-26T07:15:53.974Z,36.53
2018-11-26T07:18:19.945Z,41.07
2018-11-26T07:20:45.924Z,37.53
2018-11-26T07:23:11.942Z,34.50
2018-11-26T07:25:37.929Z,38.20
2018-11-26T07:28:03.911Z,34.53
2018-11-26T07:30:29.894Z,33.57
2018-11-26T07:32:56.674Z,38.07
2018-11-26T07:35:22.651Z,37.37
2018-11-26T07:37:48.648Z,33.63
2018-11-26T07:40:14.666Z,32.33
2018-11-26T07:42:40.654Z,34.70
2018-11-26T07:45:13.746Z,39.67
2018-11-26T07:47:39.735Z,33.53
2018-11-26T07:50:06.451Z,29.57
2018-11-26T07:52:32.469Z,33.73
2018-11-26T07:54:58.474Z,29.20
2018-11-26T07:57:24.466Z,31.97
2018-11-26T07:59:50.470Z,23.37
2018-11-26T08:02:17.211Z,31.87
2018-11-26T08:04:43.946Z,27.63
2018-11-26T08:07:10.674Z,33.67
2018-11-26T08:09:36.693Z,28.13
2018-11-26T08:12:02.682Z,29.60
2018-11-26T08:14:28.672Z,32.50
2018-11-26T08:16:54.697Z,26.37
2018-11-26T08:19:21.402Z,29.67
2018-11-26T08:21:47.378Z,26.00
2018-11-26T08:24:13.362Z,28.17
2018-11-26T08:26:39.341Z,27.03
2018-11-26T08:29:05.340Z,32.03
2018-11-26T08:31:31.334Z,29.97
2018-11-26T08:33:58.061Z,30.27
2018-11-26T08:36:24.066Z,27.73
2018-11-26T08:38:50.090Z,27.73
2018-11-26T08:41:16.085Z,23.80
2018-11-26T08:43:42.105Z,23.90
2018-11-26T08:46:08.127Z,23.67
2018-11-26T08:48:34.117Z,27.03
2018-11-26T08:51:00.131Z,23.00
2018-11-26T08:53:26.102Z,21.60
2018-11-26T08:55:52.188Z,22.10
2018-11-26T08:58:18.182Z,25.80
2018-11-26T09:00:44.178Z,23.40
2018-11-26T09:03:10.201Z,24.03
2018-11-26T09:05:36.198Z,25.50
2018-11-26T09:08:02.919Z,28.60
2018-11-26T09:10:28.913Z,20.50
2018-11-26T09:12:54.902Z,24.80
2018-11-26T09:15:20.938Z,23.53
2018-11-26T09:17:46.924Z,28.50
2018-11-26T09:20:13.649Z,23.87
2018-11-26T09:22:39.817Z,23.70
2018-11-26T09:25:05.802Z,25.07
2018-11-26T09:27:31.794Z,27.93
2018-11-26T09:29:57.974Z,26.57
2018-11-26T09:32:24.685Z,25.80
2018-11-26T09:34:50.675Z,25.20
2018-11-26T09:37:24.222Z,27.07
2018-11-26T09:39:50.214Z,29.07
2018-11-26T09:42:16.207Z,27.83
2018-11-26T09:44:42.484Z,26.30
2018-11-26T09:47:08.762Z,24.97
2018-11-26T09:49:35.150Z,23.07
2018-11-26T09:52:02.344Z,24.80
2018-11-26T09:54:28.346Z,24.63
2018-11-26T09:56:55.098Z,25.23
2018-11-26T09:59:21.082Z,26.23
2018-11-26T10:01:47.051Z,20.50
2018-11-26T10:04:13.094Z,23.90
2018-11-26T10:06:46.114Z,26.70
2018-11-26T10:09:12.130Z,23.87
2018-11-26T10:11:38.111Z,21.83
2018-11-26T10:14:04.162Z,23.17
2018-11-26T10:16:30.256Z,22.93
2018-11-26T10:18:56.557Z,37.53
2018-11-26T10:21:22.533Z,25.33
2018-11-26T10:23:48.549Z,22.53
2018-11-26T10:26:14.538Z,19.70
2018-11-26T10:28:41.283Z,19.00
2018-11-26T10:31:08.044Z,23.67
2018-11-26T10:33:34.033Z,16.87
2018-11-26T10:36:00.036Z,22.17
2018-11-26T10:38:26.031Z,22.70
2018-11-26T10:40:52.022Z,20.63
2018-11-26T10:43:18.753Z,15.83
2018-11-26T10:45:45.484Z,23.73
2018-11-26T10:48:11.470Z,20.50
2018-11-26T10:50:37.489Z,17.37
2018-11-26T10:53:03.477Z,21.10
2018-11-26T10:55:29.452Z,18.87
2018-11-26T10:57:55.460Z,16.73
2018-11-26T11:00:28.518Z,17.73
2018-11-26T11:02:54.513Z,19.33
2018-11-26T11:05:20.514Z,20.10
2018-11-26T11:07:46.526Z,16.03
2018-11-26T11:10:12.500Z,16.33
2018-11-26T11:12:38.502Z,23.40
2018-11-26T11:15:04.497Z,19.40
2018-11-26T11:17:30.502Z,16.10
2018-11-26T11:19:56.504Z,15.40
2018-11-26T11:22:22.507Z,16.40
2018-11-26T11:24:49.325Z,17.30
2018-11-26T11:27:15.338Z,16.77
2018-11-26T11:29:41.343Z,19.73
2018-11-26T11:32:07.358Z,16.60
2018-11-26T11:34:33.355Z,18.27
2018-11-26T11:37:00.110Z,18.60
2018-11-26T11:39:26.228Z,16.13
2018-11-26T11:41:52.229Z,12.97
2018-11-26T11:44:18.331Z,16.63
2018-11-26T11:46:44.384Z,16.73
2018-11-26T11:49:10.475Z,17.17
2018-11-26T11:51:36.478Z,17.23
2018-11-26T11:54:02.478Z,15.17
2018-11-26T11:56:28.472Z,17.10
2018-11-26T11:58:54.462Z,16.70
2018-11-26T12:01:20.471Z,15.60
2018-11-26T12:03:46.469Z,19.10
2018-11-26T12:06:12.473Z,20.10
2018-11-26T12:08:39.229Z,15.93
2018-11-26T12:11:05.215Z,18.80
2018-11-26T12:13:31.247Z,18.40
2018-11-26T12:15:58.002Z,18.37
2018-11-26T12:18:24.783Z,15.93
2018-11-26T12:20:50.771Z,17.07
2018-11-26T12:23:17.512Z,22.83
2018-11-26T12:25:44.265Z,16.50
2018-11-26T12:28:10.279Z,17.57
2018-11-26T12:30:37.007Z,18.03
2018-11-26T12:33:03.010Z,19.43
2018-11-26T12:35:29.098Z,21.27
2018-11-26T12:37:56.005Z,17.67
2018-11-26T12:40:22.834Z,18.63
2018-11-26T12:42:48.948Z,21.60
2018-11-26T12:45:15.001Z,22.87
2018-11-26T12:47:41.867Z,21.33
2018-11-26T12:50:07.860Z,19.77
2018-11-26T12:52:33.862Z,19.23
2018-11-26T12:54:59.991Z,20.10
2018-11-26T12:57:26.009Z,20.60
2018-11-26T12:59:52.011Z,22.17
2018-11-26T13:02:18.027Z,18.87
2018-11-26T13:04:44.036Z,21.50
2018-11-26T13:07:10.040Z,21.27
2018-11-26T13:09:36.803Z,20.27
2018-11-26T13:12:04.288Z,20.30
2018-11-26T13:14:30.615Z,23.20
2018-11-26T13:16:57.610Z,20.80
2018-11-26T13:19:24.613Z,19.20
2018-11-26T13:21:51.560Z,19.17
2018-11-26T13:24:17.981Z,26.83
2018-11-26T13:26:44.427Z,21.13
2018-11-26T13:29:10.490Z,22.20
2018-11-26T13:31:36.519Z,23.23
2018-11-26T13:34:03.261Z,20.33
2018-11-26T13:36:30.002Z,23.27
2018-11-26T13:38:56.761Z,20.77
2018-11-26T13:41:22.761Z,19.90
2018-11-26T13:43:49.540Z,20.80
2018-11-26T13:46:15.523Z,24.20
2018-11-26T13:48:41.837Z,25.37
2018-11-26T13:51:08.156Z,28.00
2018-11-26T13:53:34.501Z,26.50
2018-11-26T13:56:00.907Z,26.63
2018-11-26T13:58:27.827Z,26.70
2018-11-26T14:00:54.281Z,21.97
2018-11-26T14:03:21.597Z,23.60
2018-11-26T14:05:47.899Z,23.20
2018-11-26T14:08:14.190Z,23.40
2018-11-26T14:10:40.744Z,25.87
2018-11-26T14:13:07.754Z,21.60
2018-11-26T14:15:33.930Z,22.10
2018-11-26T14:18:00.039Z,20.27
2018-11-26T14:20:26.275Z,23.63
2018-11-26T14:22:52.083Z,22.73
2018-11-26T14:25:18.109Z,26.20
2018-11-26T14:27:44.133Z,23.17
2018-11-26T14:30:10.127Z,19.40
2018-11-26T14:32:36.132Z,19.50
2018-11-26T14:35:02.909Z,20.77
2018-11-26T14:37:28.930Z,26.43
2018-11-26T14:39:55.020Z,23.20
2018-11-26T14:42:21.116Z,24.70
2018-11-26T14:44:47.172Z,25.40
2018-11-26T14:47:13.996Z,24.27
2018-11-26T14:49:40.075Z,22.90
2018-11-26T14:52:06.362Z,22.47
2018-11-26T14:54:32.458Z,22.40
2018-11-26T14:56:58.498Z,24.80
2018-11-26T14:59:24.895Z,24.13
2018-11-26T15:01:51.233Z,19.80
2018-11-26T15:04:17.545Z,21.33
2018-11-26T15:06:43.735Z,22.67
2018-11-26T15:09:10.387Z,20.70
2018-11-26T15:11:36.247Z,20.07
2018-11-26T15:14:02.493Z,21.47
2018-11-26T15:16:29.303Z,17.50
2018-11-26T15:18:55.561Z,18.67
2018-11-26T15:21:21.703Z,19.70
2018-11-26T15:23:47.864Z,19.40
2018-11-26T15:26:13.974Z,20.67
2018-11-26T15:28:40.751Z,20.23
2018-11-26T15:31:06.878Z,21.43
2018-11-26T15:33:33.061Z,21.40
2018-11-26T15:35:59.103Z,19.90
2018-11-26T15:38:25.912Z,21.43
2018-11-26T15:40:51.994Z,20.90
2018-11-26T15:43:18.155Z,21.43
2018-11-26T15:45:44.206Z,22.27
2018-11-26T15:48:10.992Z,18.40
2018-11-26T15:50:37.031Z,21.27
2018-11-26T15:53:03.307Z,25.80
2018-11-26T15:55:30.095Z,22.43
2018-11-26T15:57:56.143Z,25.00
2018-11-26T16:00:22.191Z,20.03
2018-11-26T16:02:48.422Z,24.13
2018-11-26T16:05:14.490Z,27.57
2018-11-26T16:07:40.523Z,28.77
2018-11-26T16:10:06.575Z,29.93
2018-11-26T16:12:32.582Z,30.00
2018-11-26T16:14:58.608Z,24.83
2018-11-26T16:17:24.631Z,23.53
2018-11-26T16:19:50.652Z,23.53
2018-11-26T16:22:16.644Z,25.10
2018-11-26T16:24:42.663Z,28.00
2018-11-26T16:27:08.666Z,29.97
2018-11-26T16:29:35.436Z,27.43
2018-11-26T16:32:01.439Z,28.50
2018-11-26T16:34:27.444Z,26.40
2018-11-26T16:36:53.611Z,29.80
2018-11-26T16:39:19.652Z,30.47
2018-11-26T16:41:45.689Z,31.67
2018-11-26T16:44:11.714Z,26.57
2018-11-26T16:46:37.719Z,25.73
2018-11-26T16:49:03.812Z,29.93
2018-11-26T16:51:30.619Z,29.20
2018-11-26T16:53:56.624Z,31.37
2018-11-26T16:56:22.639Z,29.00
2018-11-26T16:58:48.646Z,29.90
2018-11-26T17:01:14.801Z,32.00
2018-11-26T17:03:40.816Z,31.70
2018-11-26T17:06:06.834Z,27.87
2018-11-26T17:08:32.868Z,27.57
2018-11-26T17:10:58.947Z,33.10
2018-11-26T17:13:25.065Z,29.63
2018-11-26T17:15:51.825Z,30.90
2018-11-26T17:18:17.876Z,28.50
2018-11-26T17:20:43.878Z,32.50
2018-11-26T17:23:09.869Z,29.90
2018-11-26T17:25:35.890Z,33.63
2018-11-26T17:28:01.898Z,29.50
2018-11-26T17:30:27.895Z,29.17
2018-11-26T17:32:53.941Z,30.50
2018-11-26T17:35:19.955Z,32.53
2018-11-26T17:37:45.982Z,31.27
2018-11-26T17:40:12.009Z,30.63
2018-11-26T17:42:38.007Z,29.33
2018-11-26T17:45:03.987Z,29.10
2018-11-26T17:47:29.996Z,29.30
2018-11-26T17:49:55.983Z,30.80
2018-11-26T17:52:21.987Z,29.27
2018-11-26T17:54:48.010Z,34.07
2018-11-26T17:57:14.087Z,33.00
2018-11-26T17:59:40.194Z,36.83
2018-11-26T18:02:06.217Z,30.47
2018-11-26T18:04:32.258Z,34.43
2018-11-26T18:06:58.497Z,32.53
2018-11-26T18:09:24.560Z,35.97
2018-11-26T18:11:50.605Z,29.97
2018-11-26T18:14:16.617Z,33.27
2018-11-26T18:16:42.607Z,27.43
2018-11-26T18:19:08.610Z,28.70
2018-11-26T18:21:34.766Z,29.73
2018-11-26T18:24:01.502Z,31.17
2018-11-26T18:26:28.267Z,32.50
2018-11-26T18:28:54.281Z,32.57
2018-11-26T18:31:20.304Z,26.50
2018-11-26T18:33:46.342Z,31.80
2018-11-26T18:36:12.372Z,32.90
2018-11-26T18:38:38.361Z,33.07
2018-11-26T18:41:05.094Z,31.37
2018-11-26T18:43:31.091Z,34.60
2018-11-26T18:45:58.341Z,32.07
2018-11-26T18:48:25.385Z,31.03
2018-11-26T18:50:51.514Z,35.77
2018-11-26T18:53:18.770Z,36.17
2018-11-26T18:55:44.903Z,32.03
2018-11-26T18:58:11.071Z,31.97
2018-11-26T19:00:37.871Z,31.80
2018-11-26T19:03:04.377Z,31.97
2018-11-26T19:05:30.413Z,29.73
2018-11-26T19:07:56.923Z,32.30
2018-11-26T19:10:23.112Z,32.73
2018-11-26T19:12:49.318Z,30.77
2018-11-26T19:15:15.351Z,36.63
2018-11-26T19:17:41.495Z,34.83
2018-11-26T19:20:08.233Z,34.27
2018-11-26T19:22:34.243Z,31.70
2018-11-26T19:25:00.247Z,36.77
2018-11-26T19:27:26.251Z,29.80
2018-11-26T19:29:52.312Z,44.10
2018-11-26T19:32:18.421Z,36.00
2018-11-26T19:34:45.209Z,36.30
2018-11-26T19:37:12.095Z,40.53
2018-11-26T19:39:42.392Z,36.60
2018-11-26T19:42:08.462Z,41.03
2018-11-26T19:44:34.558Z,37.40
2018-11-26T19:47:00.554Z,35.40
2018-11-26T19:49:26.687Z,36.57
2018-11-26T19:51:52.703Z,36.30
2018-11-26T19:54:18.736Z,33.57
2018-11-26T19:56:44.927Z,35.03
2018-11-26T19:59:10.979Z,39.20
2018-11-26T20:01:37.109Z,36.23
2018-11-26T20:04:03.915Z,36.30
2018-11-26T20:06:30.141Z,36.43
2018-11-26T20:08:56.200Z,37.73
2018-11-26T20:11:22.259Z,34.60
2018-11-26T20:13:48.307Z,38.57
2018-11-26T20:16:14.846Z,34.30
2018-11-26T20:18:41.068Z,35.10
2018-11-26T20:21:07.395Z,35.53
2018-11-26T20:23:33.728Z,39.37
2018-11-26T20:26:00.357Z,33.70
2018-11-26T20:28:26.770Z,32.33
2018-11-26T20:30:52.948Z,36.07
2018-11-26T20:33:19.103Z,32.00
2018-11-26T20:35:45.326Z,38.00
2018-11-26T20:38:12.482Z,29.40
2018-11-26T20:40:38.575Z,34.00
2018-11-26T20:43:05.022Z,27.63
2018-11-26T20:45:31.221Z,30.93
2018-11-26T20:47:58.226Z,32.60
2018-11-26T20:50:25.712Z,29.60
2018-11-26T20:52:51.854Z,31.67
2018-11-26T20:55:17.945Z,27.40
2018-11-26T20:57:44.128Z,30.10
2018-11-26T21:00:10.492Z,27.53
2018-11-26T21:02:36.583Z,28.27
2018-11-26T21:05:02.695Z,29.77
2018-11-26T21:07:28.989Z,32.40
2018-11-26T21:09:55.168Z,31.83
2018-11-26T21:12:21.215Z,25.97
2018-11-26T21:14:48.040Z,33.23
2018-11-26T21:17:14.051Z,28.37
2018-11-26T21:19:40.082Z,30.70
2018-11-26T21:22:06.078Z,28.87
2018-11-26T21:24:32.082Z,32.40
2018-11-26T21:26:58.099Z,26.03
2018-11-26T21:29:24.135Z,27.00
2018-11-26T21:31:50.127Z,26.80
2018-11-26T21:34:16.851Z,23.87
2018-11-26T21:36:42.908Z,24.90
2018-11-26T21:39:09.960Z,28.10
2018-11-26T21:41:35.934Z,26.37
2018-11-26T21:44:01.926Z,30.07
2018-11-26T21:46:27.953Z,26.60
2018-11-26T21:48:53.966Z,25.77
2018-11-26T21:51:19.971Z,25.87
2018-11-26T21:53:45.951Z,24.70
2018-11-26T21:56:11.967Z,25.20
2018-11-26T21:58:37.984Z,24.20
2018-11-26T22:01:03.994Z,24.67
2018-11-26T22:03:30.695Z,21.97
2018-11-26T22:05:56.024Z,24.03
2018-11-26T22:08:22.043Z,26.47
2018-11-26T22:10:48.322Z,23.53
2018-11-26T22:13:14.329Z,34.28
2018-11-26T22:15:40.325Z,30.33
2018-11-26T22:18:06.315Z,28.17
2018-11-26T22:20:32.323Z,26.60
2018-11-26T22:22:58.322Z,32.65
2018-11-26T22:25:24.346Z,34.70
2018-11-26T22:27:51.438Z,27.20
2018-11-26T22:30:18.183Z,28.77
2018-11-26T22:32:44.933Z,29.65
2018-11-26T22:35:11.681Z,28.17
2018-11-26T22:37:37.664Z,26.30
2018-11-26T22:40:03.669Z,28.07
2018-11-26T22:42:29.674Z,27.50
2018-11-26T22:44:55.723Z,27.77
2018-11-26T22:47:21.714Z,23.50
2018-11-26T22:49:47.728Z,25.23
2018-11-26T22:52:14.459Z,24.83
2018-11-26T22:54:40.478Z,26.23
2018-11-26T22:57:07.283Z,28.53
2018-11-26T22:59:33.287Z,27.87
2018-11-26T23:01:59.312Z,23.47
2018-11-26T23:04:25.323Z,24.43
2018-11-26T23:06:51.310Z,25.30
2018-11-26T23:09:18.054Z,23.90
2018-11-26T23:11:44.803Z,26.67
2018-11-26T23:14:12.167Z,25.50
2018-11-26T23:16:38.164Z,25.48
2018-11-26T23:19:04.941Z,27.13
2018-11-26T23:21:30.979Z,26.43
2018-11-26T23:23:57.012Z,24.40
2018-11-26T23:26:23.035Z,24.73
2018-11-26T23:28:49.028Z,25.20
2018-11-26T23:31:15.048Z,21.83
2018-11-26T23:33:41.028Z,26.13
2018-11-26T23:36:07.064Z,22.33
2018-11-26T23:38:33.062Z,22.63
2018-11-26T23:40:59.113Z,29.33
2018-11-26T23:43:25.858Z,25.60
2018-11-26T23:45:51.848Z,27.13
2018-11-26T23:48:17.864Z,22.73
2018-11-26T23:50:43.871Z,24.67
2018-11-26T23:53:09.875Z,25.93
2018-11-26T23:55:35.887Z,24.80
2018-11-26T23:58:01.883Z,24.00
